createdAt,value
2018-02-07T00:01:26.334Z,-1.00
2018-02-07T00:03:28.972Z,-1.00
2018-02-07T00:05:31.654Z,-1.00
2018-02-07T00:07:34.394Z,-1.00
2018-02-07T00:09:37.046Z,-1.00
2018-02-07T00:11:39.717Z,-1.10
2018-02-07T00:13:42.362Z,-1.10
2018-02-07T00:15:46.028Z,-1.10
2018-02-07T00:17:48.704Z,-1.10
2018-02-07T00:19:51.345Z,-1.10
2018-02-07T00:21:54.009Z,-1.00
2018-02-07T00:23:57.438Z,-1.10
2018-02-07T00:26:00.095Z,-1.10
2018-02-07T00:28:02.753Z,-1.10
2018-02-07T00:30:06.249Z,-1.20
2018-02-07T00:32:09.674Z,-1.10
2018-02-07T00:34:12.354Z,-1.10
2018-02-07T00:36:14.991Z,-1.20
2018-02-07T00:38:18.413Z,-1.20
2018-02-07T00:40:21.094Z,-1.20
2018-02-07T00:42:23.731Z,-1.10
2018-02-07T00:44:27.185Z,-1.10
2018-02-07T00:46:29.929Z,-1.10
2018-02-07T00:48:32.584Z,-1.20
2018-02-07T00:50:36.003Z,-1.20
2018-02-07T00:52:38.678Z,-1.20
2018-02-07T00:54:41.344Z,-1.20
2018-02-07T00:56:44.006Z,-1.20
2018-02-07T00:58:47.446Z,-1.30
2018-02-07T01:00:50.177Z,-1.30
2018-02-07T01:02:53.600Z,-1.30
2018-02-07T01:04:56.244Z,-1.30
2018-02-07T01:06:59.673Z,-1.50
2018-02-07T01:09:02.358Z,-1.50
2018-02-07T01:11:04.999Z,-1.50
2018-02-07T01:13:07.660Z,-1.50
2018-02-07T01:15:11.197Z,-1.50
2018-02-07T01:17:13.850Z,-1.60
2018-02-07T01:19:16.502Z,-1.60
2018-02-07T01:21:19.938Z,-1.60
2018-02-07T01:23:22.592Z,-1.60
2018-02-07T01:25:25.274Z,-1.60
2018-02-07T01:27:27.925Z,-1.70
2018-02-07T01:29:31.342Z,-1.70
2018-02-07T01:31:34.130Z,-1.70
2018-02-07T01:33:36.786Z,-1.70
2018-02-07T01:35:40.222Z,-1.70
2018-02-07T01:37:42.976Z,-1.70
2018-02-07T01:39:45.621Z,-1.80
2018-02-07T01:41:49.062Z,-1.80
2018-02-07T01:43:51.796Z,-1.80
2018-02-07T01:45:55.224Z,-1.80
2018-02-07T01:47:58.122Z,-1.80
2018-02-07T01:50:00.775Z,-1.70
2018-02-07T01:52:03.436Z,-1.70
2018-02-07T01:54:06.250Z,-1.70
2018-02-07T01:56:08.903Z,-1.70
2018-02-07T01:58:11.546Z,-1.70
2018-02-07T02:00:15.028Z,-1.70
2018-02-07T02:02:17.690Z,-1.70
2018-02-07T02:04:20.338Z,-1.70
2018-02-07T02:06:24.141Z,-1.70
2018-02-07T02:08:27.014Z,-1.70
2018-02-07T02:10:29.661Z,-1.80
2018-02-07T02:12:33.177Z,-1.80
2018-02-07T02:14:35.834Z,-1.80
2018-02-07T02:16:39.247Z,-1.80
2018-02-07T02:18:41.928Z,-1.80
2018-02-07T02:20:44.607Z,-1.80
2018-02-07T02:22:47.252Z,-1.90
2018-02-07T02:24:50.707Z,-1.80
2018-02-07T02:26:53.358Z,-1.90
2018-02-07T02:28:55.997Z,-1.90
2018-02-07T02:30:59.428Z,-1.90
2018-02-07T02:33:02.073Z,-1.90
2018-02-07T02:35:05.491Z,-1.90
2018-02-07T02:37:08.337Z,-1.90
2018-02-07T02:39:11.762Z,-2.00
2018-02-07T02:41:14.417Z,-2.00
2018-02-07T02:43:17.094Z,-2.00
2018-02-07T02:45:20.699Z,-1.90
2018-02-07T02:47:23.387Z,-1.90
2018-02-07T02:49:26.048Z,-2.00
2018-02-07T02:51:28.700Z,-1.90
2018-02-07T02:53:31.359Z,-1.90
2018-02-07T02:55:34.039Z,-1.90
2018-02-07T02:57:36.680Z,-1.90
2018-02-07T02:59:39.337Z,-2.00
2018-02-07T03:01:42.012Z,-2.00
2018-02-07T03:03:44.666Z,-2.00
2018-02-07T03:05:48.065Z,-2.00
2018-02-07T03:07:51.581Z,-2.00
2018-02-07T03:09:54.254Z,-2.00
2018-02-07T03:11:56.898Z,-2.00
2018-02-07T03:14:00.324Z,-1.90
2018-02-07T03:16:02.966Z,-1.90
2018-02-07T03:18:06.377Z,-1.90
2018-02-07T03:20:09.045Z,-1.90
2018-02-07T03:22:12.466Z,-1.90
2018-02-07T03:24:15.111Z,-1.90
2018-02-07T03:26:18.567Z,-1.90
2018-02-07T03:28:21.201Z,-1.90
2018-02-07T03:30:23.858Z,-1.90
2018-02-07T03:32:27.388Z,-1.90
2018-02-07T03:34:30.043Z,-2.00
2018-02-07T03:36:32.691Z,-1.90
2018-02-07T03:38:35.383Z,-1.90
2018-02-07T03:40:38.783Z,-1.90
2018-02-07T03:42:42.209Z,-1.90
2018-02-07T03:44:44.975Z,-1.90
2018-02-07T03:46:47.645Z,-1.90
2018-02-07T03:48:50.282Z,-2.00
2018-02-07T03:50:52.954Z,-2.00
2018-02-07T03:52:56.363Z,-2.00
2018-02-07T03:54:59.824Z,-2.00
2018-02-07T03:57:02.474Z,-2.00
2018-02-07T03:59:05.112Z,-2.00
2018-02-07T04:01:08.545Z,-2.00
2018-02-07T04:03:11.194Z,-2.10
2018-02-07T04:05:13.848Z,-2.00
2018-02-07T04:07:17.290Z,-2.10
2018-02-07T04:09:19.952Z,-2.10
2018-02-07T04:11:22.602Z,-2.10
2018-02-07T04:13:26.036Z,-2.20
2018-02-07T04:15:28.733Z,-2.20
2018-02-07T04:17:31.369Z,-2.20
2018-02-07T04:19:34.130Z,-2.20
2018-02-07T04:21:37.550Z,-2.40
2018-02-07T04:23:40.240Z,-2.40
2018-02-07T04:25:43.016Z,-2.40
2018-02-07T04:27:45.778Z,-2.40
2018-02-07T04:29:48.527Z,-2.40
2018-02-07T04:31:52.061Z,-2.50
2018-02-07T04:33:54.726Z,-2.40
2018-02-07T04:35:57.414Z,-2.40
2018-02-07T04:38:00.179Z,-2.50
2018-02-07T04:40:02.962Z,-2.50
2018-02-07T04:42:05.620Z,-2.50
2018-02-07T04:44:08.272Z,-2.60
2018-02-07T04:46:10.912Z,-2.50
2018-02-07T04:48:13.589Z,-2.60
2018-02-07T04:50:16.241Z,-2.60
2018-02-07T04:52:19.010Z,-2.70
2018-02-07T04:54:21.672Z,-2.70
2018-02-07T04:56:25.188Z,-2.80
2018-02-07T04:58:27.834Z,-2.80
2018-02-07T05:00:31.280Z,-2.90
2018-02-07T05:02:34.024Z,-2.90
2018-02-07T05:04:36.672Z,-2.90
2018-02-07T05:06:39.550Z,-2.90
2018-02-07T05:08:42.205Z,-2.90
2018-02-07T05:10:44.865Z,-3.00
2018-02-07T05:12:47.642Z,-3.00
2018-02-07T05:14:50.287Z,-3.00
2018-02-07T05:16:52.986Z,-3.00
2018-02-07T05:18:55.663Z,-3.10
2018-02-07T05:20:58.335Z,-3.10
2018-02-07T05:23:01.000Z,-3.10
2018-02-07T05:25:03.803Z,-3.20
2018-02-07T05:27:06.463Z,-3.20
2018-02-07T05:29:09.118Z,-3.20
2018-02-07T05:31:11.935Z,-3.30
2018-02-07T05:33:14.592Z,-3.20
2018-02-07T05:35:17.473Z,-3.30
2018-02-07T05:37:20.263Z,-3.30
2018-02-07T05:39:22.924Z,-3.30
2018-02-07T05:41:25.572Z,-3.30
2018-02-07T05:43:29.013Z,-3.30
2018-02-07T05:45:31.679Z,-3.30
2018-02-07T05:47:34.337Z,-3.30
2018-02-07T05:49:37.044Z,-3.30
2018-02-07T05:51:39.693Z,-3.40
2018-02-07T05:53:42.378Z,-3.30
2018-02-07T05:55:45.144Z,-3.30
2018-02-07T05:57:47.794Z,-3.40
2018-02-07T05:59:51.234Z,-3.40
2018-02-07T06:01:53.895Z,-3.40
2018-02-07T06:03:56.558Z,-3.40
2018-02-07T06:05:59.321Z,-3.40
2018-02-07T06:08:02.724Z,-3.40
2018-02-07T06:10:05.429Z,-3.50
2018-02-07T06:12:08.096Z,-3.50
2018-02-07T06:14:10.754Z,-3.50
2018-02-07T06:16:13.406Z,-3.50
2018-02-07T06:18:16.099Z,-3.50
2018-02-07T06:20:19.514Z,-3.60
2018-02-07T06:22:22.169Z,-3.60
2018-02-07T06:24:25.792Z,-3.60
2018-02-07T06:26:28.446Z,-3.60
2018-02-07T06:28:31.094Z,-3.60
2018-02-07T06:30:33.777Z,-3.60
2018-02-07T06:32:36.432Z,-3.60
2018-02-07T06:34:39.092Z,-3.60
2018-02-07T06:36:41.768Z,-3.60
2018-02-07T06:38:44.937Z,-3.60
2018-02-07T06:40:47.700Z,-3.60
2018-02-07T06:42:50.380Z,-3.60
2018-02-07T06:44:53.034Z,-3.70
2018-02-07T06:46:56.440Z,-3.70
2018-02-07T06:48:59.120Z,-3.70
2018-02-07T06:51:01.762Z,-3.70
2018-02-07T06:53:04.407Z,-3.70
2018-02-07T06:55:07.099Z,-3.80
2018-02-07T06:57:10.518Z,-3.70
2018-02-07T06:59:13.946Z,-3.70
2018-02-07T07:01:16.634Z,-3.70
2018-02-07T07:03:19.367Z,-3.60
2018-02-07T07:05:22.014Z,-3.70
2018-02-07T07:07:25.448Z,-3.70
2018-02-07T07:09:28.127Z,-3.70
2018-02-07T07:11:30.797Z,-3.70
2018-02-07T07:13:33.494Z,-3.70
2018-02-07T07:15:36.162Z,-3.60
2018-02-07T07:17:38.912Z,-3.70
2018-02-07T07:19:41.595Z,-3.70
2018-02-07T07:21:44.265Z,-3.60
2018-02-07T07:23:47.049Z,-3.60
2018-02-07T07:25:49.728Z,-3.70
2018-02-07T07:27:52.384Z,-3.70
2018-02-07T07:29:55.040Z,-3.70
2018-02-07T07:31:58.485Z,-3.60
2018-02-07T07:34:01.136Z,-3.70
2018-02-07T07:36:05.583Z,-3.70
2018-02-07T07:38:08.254Z,-3.60
2018-02-07T07:40:11.069Z,-3.60
2018-02-07T07:42:13.881Z,-3.60
2018-02-07T07:44:16.568Z,-3.60
2018-02-07T07:46:19.234Z,-3.60
2018-02-07T07:48:22.018Z,-3.60
2018-02-07T07:50:24.703Z,-3.60
2018-02-07T07:52:27.364Z,-3.60
2018-02-07T07:54:30.030Z,-3.60
2018-02-07T07:56:33.498Z,-3.60
2018-02-07T07:58:36.167Z,-3.60
2018-02-07T08:00:38.830Z,-3.60
2018-02-07T08:02:41.685Z,-3.60
2018-02-07T08:04:44.339Z,-3.70
2018-02-07T08:06:47.002Z,-3.60
2018-02-07T08:08:49.700Z,-3.50
2018-02-07T08:10:52.358Z,-3.40
2018-02-07T08:12:55.788Z,-3.40
2018-02-07T08:14:58.467Z,-3.40
2018-02-07T08:17:01.128Z,-3.30
2018-02-07T08:19:03.792Z,-3.20
2018-02-07T08:21:06.456Z,-3.20
2018-02-07T08:23:09.918Z,-2.10
2018-02-07T08:25:12.565Z,-2.10
2018-02-07T08:27:15.328Z,-1.20
2018-02-07T08:29:17.966Z,0.00
2018-02-07T08:31:21.389Z,-1.90
2018-02-07T08:33:24.060Z,-1.90
2018-02-07T08:35:26.713Z,-2.20
2018-02-07T08:37:30.143Z,-1.10
2018-02-07T08:39:32.832Z,-1.10
2018-02-07T08:41:35.486Z,-0.40
2018-02-07T08:43:38.256Z,1.40
2018-02-07T08:45:40.946Z,0.40
2018-02-07T08:47:43.737Z,-0.50
2018-02-07T08:49:46.403Z,0.40
2018-02-07T08:51:49.061Z,1.20
2018-02-07T08:53:52.655Z,0.10
2018-02-07T08:55:56.076Z,-0.30
2018-02-07T08:57:58.744Z,-0.40
2018-02-07T09:00:01.422Z,0.60
2018-02-07T09:02:04.231Z,3.00
2018-02-07T09:04:06.868Z,3.20
2018-02-07T09:06:09.547Z,2.40
2018-02-07T09:08:12.210Z,1.50
2018-02-07T09:10:14.883Z,1.10
2018-02-07T09:12:18.413Z,0.60
2018-02-07T09:14:21.089Z,0.50
2018-02-07T09:16:23.749Z,0.20
2018-02-07T09:18:26.402Z,0.80
2018-02-07T09:20:29.839Z,4.10
2018-02-07T09:22:32.487Z,4.10
2018-02-07T09:24:35.142Z,3.80
2018-02-07T09:26:38.609Z,4.70
2018-02-07T09:28:41.430Z,4.70
2018-02-07T09:30:44.116Z,3.90
2018-02-07T09:32:46.909Z,3.60
2018-02-07T09:34:49.571Z,2.60
2018-02-07T09:36:52.216Z,3.10
2018-02-07T09:38:55.771Z,3.60
2018-02-07T09:40:58.418Z,3.50
2018-02-07T09:43:01.079Z,3.20
2018-02-07T09:45:04.538Z,2.20
2018-02-07T09:47:09.168Z,2.20
2018-02-07T09:49:12.592Z,3.00
2018-02-07T09:51:15.398Z,3.00
2018-02-07T09:53:18.050Z,1.90
2018-02-07T09:55:20.715Z,3.80
2018-02-07T09:57:24.159Z,2.30
2018-02-07T09:59:26.815Z,2.20
2018-02-07T10:01:29.460Z,2.40
2018-02-07T10:03:32.902Z,5.40
2018-02-07T10:05:35.572Z,5.40
2018-02-07T10:07:38.215Z,4.80
2018-02-07T10:09:40.894Z,4.80
2018-02-07T10:11:43.542Z,5.00
2018-02-07T10:13:46.195Z,5.60
2018-02-07T10:15:48.880Z,6.20
2018-02-07T10:17:51.516Z,6.50
2018-02-07T10:19:54.174Z,4.60
2018-02-07T10:21:56.867Z,5.00
2018-02-07T10:23:59.548Z,5.30
2018-02-07T10:26:02.234Z,6.50
2018-02-07T10:28:04.906Z,6.00
2018-02-07T10:30:07.567Z,5.30
2018-02-07T10:32:10.231Z,5.30
2018-02-07T10:34:12.917Z,5.90
2018-02-07T10:36:15.567Z,5.90
2018-02-07T10:38:18.976Z,6.50
2018-02-07T10:40:21.670Z,6.50
2018-02-07T10:42:24.316Z,5.40
2018-02-07T10:44:28.868Z,4.60
2018-02-07T10:46:31.546Z,4.60
2018-02-07T10:48:34.187Z,3.00
2018-02-07T10:50:37.603Z,1.90
2018-02-07T10:52:40.276Z,1.80
2018-02-07T10:54:43.067Z,1.50
2018-02-07T10:56:45.754Z,1.70
2018-02-07T10:58:48.483Z,1.30
2018-02-07T11:00:51.983Z,1.20
2018-02-07T11:02:55.431Z,1.00
2018-02-07T11:04:58.086Z,1.00
2018-02-07T11:07:00.749Z,1.30
2018-02-07T11:09:03.521Z,1.20
2018-02-07T11:11:06.183Z,1.40
2018-02-07T11:13:09.603Z,1.30
2018-02-07T11:15:12.270Z,1.30
2018-02-07T11:17:14.923Z,1.00
2018-02-07T11:19:18.432Z,1.10
2018-02-07T11:21:21.115Z,1.10
2018-02-07T11:23:23.767Z,1.00
2018-02-07T11:25:27.168Z,1.00
2018-02-07T11:27:30.694Z,1.20
2018-02-07T11:29:33.503Z,1.20
2018-02-07T11:31:36.167Z,1.20
2018-02-07T11:33:38.930Z,1.30
2018-02-07T11:35:41.568Z,1.10
2018-02-07T11:37:45.082Z,0.90
2018-02-07T11:39:47.771Z,0.90
2018-02-07T11:41:50.571Z,1.00
2018-02-07T11:43:53.217Z,0.90
2018-02-07T11:45:55.946Z,1.00
2018-02-07T11:47:58.587Z,0.80
2018-02-07T11:50:01.234Z,1.10
2018-02-07T11:52:03.909Z,1.10
2018-02-07T11:54:06.605Z,1.40
2018-02-07T11:56:09.250Z,1.50
2018-02-07T11:58:12.679Z,1.60
2018-02-07T12:00:15.348Z,1.60
2018-02-07T12:02:18.015Z,1.30
2018-02-07T12:04:20.783Z,1.50
2018-02-07T12:06:24.193Z,1.50
2018-02-07T12:08:26.871Z,1.50
2018-02-07T12:10:29.564Z,1.40
2018-02-07T12:12:32.200Z,1.50
2018-02-07T12:14:35.621Z,1.30
2018-02-07T12:16:38.405Z,1.30
2018-02-07T12:18:41.048Z,1.50
2018-02-07T12:20:44.482Z,1.80
2018-02-07T12:22:47.146Z,1.80
2018-02-07T12:24:49.775Z,1.90
2018-02-07T12:26:52.446Z,2.00
2018-02-07T12:28:55.094Z,1.90
2018-02-07T12:30:57.753Z,1.40
2018-02-07T12:33:00.412Z,1.40
2018-02-07T12:35:03.066Z,1.50
2018-02-07T12:37:06.500Z,1.60
2018-02-07T12:39:09.169Z,1.60
2018-02-07T12:41:11.851Z,1.40
2018-02-07T12:43:14.507Z,1.40
2018-02-07T12:45:17.154Z,1.40
2018-02-07T12:47:20.190Z,1.50
2018-02-07T12:49:22.862Z,1.50
2018-02-07T12:51:25.505Z,1.50
2018-02-07T12:53:28.950Z,1.80
2018-02-07T12:55:31.589Z,1.80
2018-02-07T12:57:34.246Z,1.80
2018-02-07T12:59:37.667Z,1.90
2018-02-07T13:01:40.319Z,1.90
2018-02-07T13:03:43.725Z,1.90
2018-02-07T13:05:46.416Z,1.90
2018-02-07T13:07:49.158Z,1.60
2018-02-07T13:09:52.586Z,1.60
2018-02-07T13:11:55.270Z,1.60
2018-02-07T13:13:57.912Z,1.60
2018-02-07T13:16:01.313Z,1.70
2018-02-07T13:18:04.028Z,1.70
2018-02-07T13:20:06.688Z,1.80
2018-02-07T13:22:09.346Z,1.70
2018-02-07T13:24:12.388Z,1.80
2018-02-07T13:26:15.041Z,1.90
2018-02-07T13:28:17.807Z,1.90
2018-02-07T13:30:20.572Z,2.00
2018-02-07T13:32:23.222Z,1.90
2018-02-07T13:34:26.638Z,1.80
2018-02-07T13:36:29.300Z,1.80
2018-02-07T13:38:31.942Z,1.80
2018-02-07T13:40:34.644Z,1.80
2018-02-07T13:42:38.093Z,1.90
2018-02-07T13:44:40.754Z,1.80
2018-02-07T13:46:43.469Z,1.80
2018-02-07T13:48:46.118Z,1.70
2018-02-07T13:50:48.773Z,1.80
2018-02-07T13:52:51.547Z,1.80
2018-02-07T13:54:54.180Z,1.90
2018-02-07T13:56:56.816Z,1.90
2018-02-07T13:58:59.484Z,1.90
2018-02-07T14:01:02.143Z,1.80
2018-02-07T14:03:04.775Z,1.80
2018-02-07T14:05:07.455Z,1.70
2018-02-07T14:07:10.109Z,1.70
2018-02-07T14:09:12.761Z,1.70
2018-02-07T14:11:15.436Z,1.80
2018-02-07T14:13:18.092Z,1.70
2018-02-07T14:15:20.739Z,1.70
2018-02-07T14:17:23.409Z,1.70
2018-02-07T14:19:26.046Z,1.60
2018-02-07T14:21:28.808Z,1.60
2018-02-07T14:23:31.485Z,1.80
2018-02-07T14:25:34.150Z,1.80
2018-02-07T14:27:36.797Z,1.80
2018-02-07T14:29:40.249Z,1.70
2018-02-07T14:31:42.907Z,1.70
2018-02-07T14:33:45.562Z,1.60
2018-02-07T14:35:48.991Z,1.60
2018-02-07T14:37:51.653Z,1.60
2018-02-07T14:39:54.322Z,1.50
2018-02-07T14:41:57.006Z,1.50
2018-02-07T14:43:59.780Z,1.50
2018-02-07T14:46:02.467Z,1.40
2018-02-07T14:48:05.152Z,1.40
2018-02-07T14:50:07.846Z,1.40
2018-02-07T14:52:10.512Z,1.40
2018-02-07T14:54:13.280Z,1.50
2018-02-07T14:56:16.058Z,1.50
2018-02-07T14:58:18.709Z,1.40
2018-02-07T15:00:21.517Z,1.40
2018-02-07T15:02:24.206Z,1.40
2018-02-07T15:04:26.877Z,1.30
2018-02-07T15:06:29.526Z,1.30
2018-02-07T15:08:32.321Z,1.30
2018-02-07T15:10:35.007Z,1.30
2018-02-07T15:12:37.674Z,1.20
2018-02-07T15:14:40.349Z,1.20
2018-02-07T15:16:43.103Z,1.20
2018-02-07T15:18:45.790Z,1.20
2018-02-07T15:20:48.432Z,1.10
2018-02-07T15:22:51.832Z,1.10
2018-02-07T15:24:55.357Z,1.10
2018-02-07T15:26:58.038Z,1.10
2018-02-07T15:29:00.679Z,1.10
2018-02-07T15:31:04.361Z,1.00
2018-02-07T15:33:07.231Z,1.00
2018-02-07T15:35:10.501Z,1.00
2018-02-07T15:37:13.229Z,0.90
2018-02-07T15:39:16.650Z,0.90
2018-02-07T15:41:19.868Z,0.90
2018-02-07T15:43:22.579Z,0.90
2018-02-07T15:45:26.190Z,0.80
2018-02-07T15:47:28.825Z,0.80
2018-02-07T15:49:31.518Z,0.80
2018-02-07T15:51:34.168Z,0.70
2018-02-07T15:53:36.916Z,0.70
2018-02-07T15:55:39.619Z,0.70
2018-02-07T15:57:42.370Z,0.70
2018-02-07T15:59:45.035Z,0.60
2018-02-07T16:01:47.764Z,0.60
2018-02-07T16:03:50.832Z,0.60
2018-02-07T16:05:53.696Z,0.50
2018-02-07T16:07:56.416Z,0.40
2018-02-07T16:09:59.059Z,0.40
2018-02-07T16:12:01.720Z,0.30
2018-02-07T16:14:04.422Z,0.30
2018-02-07T16:16:07.282Z,0.30
2018-02-07T16:18:09.937Z,0.30
2018-02-07T16:20:14.650Z,0.30
2018-02-07T16:22:17.306Z,0.20
2018-02-07T16:24:20.207Z,0.20
2018-02-07T16:26:22.893Z,0.10
2018-02-07T16:28:25.691Z,0.10
2018-02-07T16:30:29.296Z,0.10
2018-02-07T16:32:32.828Z,-0.10
2018-02-07T16:34:35.489Z,-0.10
2018-02-07T16:36:38.219Z,-0.20
2018-02-07T16:38:41.425Z,-0.20
2018-02-07T16:40:44.196Z,-0.20
2018-02-07T16:42:47.055Z,-0.30
2018-02-07T16:44:50.676Z,-0.40
2018-02-07T16:46:53.370Z,-0.40
2018-02-07T16:48:56.031Z,-0.40
2018-02-07T16:50:58.720Z,-0.40
2018-02-07T16:53:01.382Z,-0.50
2018-02-07T16:55:04.049Z,-0.50
2018-02-07T16:57:06.709Z,-0.60
2018-02-07T16:59:10.138Z,-0.70
2018-02-07T17:01:12.999Z,-0.70
2018-02-07T17:03:15.674Z,-0.60
2018-02-07T17:05:18.316Z,-0.70
2018-02-07T17:07:21.114Z,-0.80
2018-02-07T17:09:24.647Z,-0.80
2018-02-07T17:11:27.315Z,-0.80
2018-02-07T17:13:30.146Z,-0.90
2018-02-07T17:15:32.974Z,-0.90
2018-02-07T17:17:35.729Z,-1.00
2018-02-07T17:19:38.405Z,-1.00
2018-02-07T17:21:41.045Z,-0.90
2018-02-07T17:23:43.725Z,-1.00
2018-02-07T17:25:46.452Z,-1.00
2018-02-07T17:27:49.228Z,-1.10
2018-02-07T17:29:51.897Z,-1.10
2018-02-07T17:31:54.584Z,-1.10
2018-02-07T17:33:57.254Z,-1.10
2018-02-07T17:36:00.358Z,-1.20
2018-02-07T17:38:03.020Z,-1.30
2018-02-07T17:40:05.682Z,-1.30
2018-02-07T17:42:08.457Z,-1.20
2018-02-07T17:44:11.138Z,-1.20
2018-02-07T17:46:13.805Z,-1.30
2018-02-07T17:48:17.237Z,-1.40
2018-02-07T17:50:19.871Z,-1.40
2018-02-07T17:52:23.431Z,-1.50
2018-02-07T17:54:28.037Z,-1.50
2018-02-07T17:56:30.786Z,-1.60
2018-02-07T17:58:34.115Z,-1.60
2018-02-07T18:00:36.760Z,-1.60
2018-02-07T18:02:40.760Z,-1.50
2018-02-07T18:04:43.422Z,-1.60
2018-02-07T18:06:47.552Z,-1.60
2018-02-07T18:08:50.450Z,-1.60
2018-02-07T18:10:53.543Z,-1.60
2018-02-07T18:12:56.200Z,-1.50
2018-02-07T18:14:58.900Z,-1.60
2018-02-07T18:17:01.571Z,-1.60
2018-02-07T18:19:04.219Z,-1.60
2018-02-07T18:21:06.914Z,-1.60
2018-02-07T18:23:09.580Z,-1.70
2018-02-07T18:25:12.262Z,-1.60
2018-02-07T18:27:14.958Z,-1.70
2018-02-07T18:29:17.814Z,-1.70
2018-02-07T18:31:20.704Z,-1.60
2018-02-07T18:33:23.384Z,-1.60
2018-02-07T18:35:26.220Z,-1.60
2018-02-07T18:37:29.753Z,-1.70
2018-02-07T18:39:32.541Z,-1.70
2018-02-07T18:41:35.302Z,-1.60
2018-02-07T18:43:38.076Z,-1.70
2018-02-07T18:45:40.750Z,-1.70
2018-02-07T18:47:43.392Z,-1.80
2018-02-07T18:49:47.057Z,-1.80
2018-02-07T18:51:49.740Z,-1.80
2018-02-07T18:53:52.490Z,-1.80
2018-02-07T18:55:55.273Z,-1.80
2018-02-07T18:57:58.448Z,-1.80
2018-02-07T19:00:01.245Z,-1.90
2018-02-07T19:02:04.036Z,-1.90
2018-02-07T19:04:06.988Z,-2.00
2018-02-07T19:06:09.659Z,-2.00
2018-02-07T19:08:12.520Z,-2.00
2018-02-07T19:10:16.141Z,-2.10
2018-02-07T19:12:18.920Z,-2.10
2018-02-07T19:14:21.634Z,-2.20
2018-02-07T19:16:24.285Z,-2.10
2018-02-07T19:18:26.947Z,-2.10
2018-02-07T19:20:29.658Z,-2.10
2018-02-07T19:22:32.562Z,-2.00
2018-02-07T19:24:35.225Z,-2.00
2018-02-07T19:26:37.906Z,-2.10
2018-02-07T19:28:40.564Z,-2.10
2018-02-07T19:30:43.314Z,-2.10
2018-02-07T19:32:46.272Z,-2.10
2018-02-07T19:34:50.009Z,-2.20
2018-02-07T19:36:52.669Z,-2.20
2018-02-07T19:38:55.345Z,-2.20
2018-02-07T19:40:58.320Z,-2.30
2018-02-07T19:43:01.239Z,-2.30
2018-02-07T19:45:03.925Z,-2.30
2018-02-07T19:47:06.586Z,-2.30
2018-02-07T19:49:10.287Z,-2.40
2018-02-07T19:51:13.413Z,-2.40
2018-02-07T19:53:16.061Z,-2.30
2018-02-07T19:55:18.716Z,-2.40
2018-02-07T19:57:21.384Z,-2.50
2018-02-07T19:59:24.795Z,-2.60
2018-02-07T20:01:27.454Z,-2.60
2018-02-07T20:03:30.136Z,-2.50
2018-02-07T20:05:32.767Z,-2.50
2018-02-07T20:07:37.262Z,-2.70
2018-02-07T20:09:40.041Z,-2.70
2018-02-07T20:11:42.792Z,-2.60
2018-02-07T20:13:45.474Z,-2.70
2018-02-07T20:15:48.262Z,-2.80
2018-02-07T20:17:50.922Z,-3.00
2018-02-07T20:19:53.705Z,-3.10
2018-02-07T20:21:56.425Z,-3.10
2018-02-07T20:24:02.728Z,-3.10
2018-02-07T20:26:07.045Z,-3.20
2018-02-07T20:28:10.561Z,-3.20
2018-02-07T20:30:17.751Z,-3.20
2018-02-07T20:32:20.587Z,-3.20
2018-02-07T20:34:24.555Z,-3.30
2018-02-07T20:36:27.544Z,-3.40
2018-02-07T20:38:30.206Z,-3.30
2018-02-07T20:40:32.980Z,-3.30
2018-02-07T20:42:35.647Z,-3.30
2018-02-07T20:44:38.292Z,-3.30
2018-02-07T20:46:41.741Z,-3.30
2018-02-07T20:48:44.471Z,-3.30
2018-02-07T20:50:47.982Z,-3.40
2018-02-07T20:52:50.771Z,-3.40
2018-02-07T20:54:53.538Z,-3.40
2018-02-07T20:56:56.450Z,-3.40
2018-02-07T20:58:59.449Z,-3.40
2018-02-07T21:01:03.637Z,-3.40
2018-02-07T21:03:06.323Z,-3.40
2018-02-07T21:05:09.176Z,-3.40
2018-02-07T21:07:11.811Z,-3.40
2018-02-07T21:09:15.331Z,-3.50
2018-02-07T21:11:17.990Z,-3.50
2018-02-07T21:13:21.413Z,-3.50
2018-02-07T21:15:24.196Z,-3.50
2018-02-07T21:17:26.870Z,-3.50
2018-02-07T21:19:29.515Z,-3.60
2018-02-07T21:21:32.971Z,-3.50
2018-02-07T21:23:35.713Z,-3.60
2018-02-07T21:25:38.719Z,-3.50
2018-02-07T21:27:41.516Z,-3.50
2018-02-07T21:29:44.203Z,-3.50
2018-02-07T21:31:46.844Z,-3.50
2018-02-07T21:33:49.528Z,-3.60
2018-02-07T21:35:52.191Z,-3.80
2018-02-07T21:37:54.872Z,-3.70
2018-02-07T21:39:57.555Z,-3.70
2018-02-07T21:42:00.229Z,-3.70
2018-02-07T21:44:02.896Z,-3.70
2018-02-07T21:46:05.573Z,-3.70
2018-02-07T21:48:08.479Z,-3.70
2018-02-07T21:50:11.748Z,-3.70
2018-02-07T21:52:14.652Z,-3.70
2018-02-07T21:54:17.312Z,-3.70
2018-02-07T21:56:19.980Z,-3.70
2018-02-07T21:58:23.008Z,-3.70
2018-02-07T22:00:26.754Z,-3.70
2018-02-07T22:02:29.434Z,-3.70
2018-02-07T22:04:32.126Z,-3.70
2018-02-07T22:06:35.022Z,-3.60
2018-02-07T22:08:37.700Z,-3.70
2018-02-07T22:10:40.368Z,-3.80
2018-02-07T22:12:43.016Z,-3.90
2018-02-07T22:14:45.694Z,-3.80
2018-02-07T22:16:48.338Z,-3.80
2018-02-07T22:18:51.792Z,-3.80
2018-02-07T22:20:54.516Z,-3.80
2018-02-07T22:22:57.943Z,-3.60
2018-02-07T22:25:00.804Z,-3.70
2018-02-07T22:27:03.494Z,-3.70
2018-02-07T22:29:06.276Z,-3.70
2018-02-07T22:31:09.559Z,-3.70
2018-02-07T22:33:12.259Z,-3.80
2018-02-07T22:35:14.914Z,-3.90
2018-02-07T22:37:17.870Z,-4.00
2018-02-07T22:39:21.308Z,-4.10
2018-02-07T22:41:23.966Z,-4.10
2018-02-07T22:43:26.842Z,-4.00
2018-02-07T22:45:29.563Z,-4.00
2018-02-07T22:47:32.238Z,-4.10
2018-02-07T22:49:35.075Z,-4.10
2018-02-07T22:51:37.770Z,-4.10
2018-02-07T22:53:40.464Z,-4.10
2018-02-07T22:55:43.116Z,-4.20
2018-02-07T22:57:45.791Z,-4.20
2018-02-07T22:59:48.436Z,-4.30
2018-02-07T23:01:51.864Z,-4.20
2018-02-07T23:03:54.546Z,-4.20
2018-02-07T23:05:57.196Z,-4.30
2018-02-07T23:07:59.845Z,-4.30
2018-02-07T23:10:03.292Z,-4.40
2018-02-07T23:12:05.948Z,-4.40
2018-02-07T23:14:08.644Z,-4.20
2018-02-07T23:16:11.402Z,-4.20
2018-02-07T23:18:14.048Z,-4.30
2018-02-07T23:20:17.504Z,-4.40
2018-02-07T23:22:20.251Z,-4.40
2018-02-07T23:24:23.005Z,-4.40
2018-02-07T23:26:26.460Z,-4.40
2018-02-07T23:28:30.119Z,-4.50
2018-02-07T23:30:32.796Z,-4.40
2018-02-07T23:32:35.483Z,-4.50
2018-02-07T23:34:38.353Z,-4.50
2018-02-07T23:36:40.994Z,-4.60
2018-02-07T23:38:44.469Z,-4.60
2018-02-07T23:40:47.191Z,-4.60
2018-02-07T23:42:49.877Z,-4.60
2018-02-07T23:44:52.521Z,-4.60
2018-02-07T23:46:55.950Z,-4.70
2018-02-07T23:48:58.637Z,-4.70
2018-02-07T23:51:01.283Z,-4.70
2018-02-07T23:53:03.952Z,-4.70
2018-02-07T23:55:07.361Z,-4.70
2018-02-07T23:57:10.178Z,-4.70
2018-02-07T23:59:12.847Z,-4.70
